Time;durP1;ratioP1;P1;durP2;ratioP2;P2;SDS_P1;SDS_P2;PMS_P1;PMS_P2;Temp;Humidity;BMP_temperature;BMP_pressure;BME280_temperature;BME280_humidity;BME280_pressure;Samples;Min_cycle;Max_cycle;Signal;HPM_P1;HPM_P2
2024/04/02 00:00:16;;;;;;;40.03;7.18;;;;;;;;;;4342097;32;318182;-77
2024/04/02 00:02:44;;;;;;;22.40;7.50;;;;;;;;;;4351583;32;332454;-77
2024/04/02 00:05:09;;;;;;;31.92;7.30;;;;;;;;;;4356607;32;316729;-77
2024/04/02 00:07:37;;;;;;;41.72;7.15;;;;;;;;;;4371521;32;316406;-78
2024/04/02 00:10:05;;;;;;;26.10;4.72;;;;;;;;;;4370732;32;317326;-78
2024/04/02 00:12:33;;;;;;;28.20;5.85;;;;;;;;;;4353410;32;317102;-78
2024/04/02 00:15:05;;;;;;;24.67;6.05;;;;;;;;;;4360773;32;318048;-78
2024/04/02 00:17:33;;;;;;;26.80;5.93;;;;;;;;;;4341764;32;318062;-77
2024/04/02 00:20:04;;;;;;;26.42;6.50;;;;;;;;;;4352095;32;317716;-77
2024/04/02 00:22:30;;;;;;;49.13;6.32;;;;;;;;;;4335767;32;317666;-77
2024/04/02 00:24:56;;;;;;;37.42;6.05;;;;;;;;;;4352861;32;318055;-77
2024/04/02 00:27:23;;;;;;;36.67;6.00;;;;;;;;;;4342873;32;318363;-78
2024/04/02 00:29:49;;;;;;;22.58;6.15;;;;;;;;;;4346073;32;318047;-78
2024/04/02 00:32:17;;;;;;;43.70;7.18;;;;;;;;;;4325146;32;318656;-78
2024/04/02 00:34:43;;;;;;;28.58;5.75;;;;;;;;;;4328331;32;318219;-78
2024/04/02 00:37:10;;;;;;;45.35;6.03;;;;;;;;;;4345420;32;318432;-78
2024/04/02 00:39:36;;;;;;;33.55;7.10;;;;;;;;;;4339169;32;417505;-78
2024/04/02 00:42:05;;;;;;;26.98;5.45;;;;;;;;;;4349305;32;317534;-79
2024/04/02 00:44:36;;;;;;;30.60;6.62;;;;;;;;;;4335423;32;318036;-78
2024/04/02 00:47:05;;;;;;;46.75;7.37;;;;;;;;;;4352837;32;317645;-78
2024/04/02 00:49:33;;;;;;;38.35;5.85;;;;;;;;;;4343237;32;318431;-78
2024/04/02 00:52:00;;;;;;;23.20;5.85;;;;;;;;;;4351384;32;318254;-77
2024/04/02 00:54:28;;;;;;;32.90;6.80;;;;;;;;;;4333755;32;342360;-77
2024/04/02 00:56:56;;;;;;;23.55;6.07;;;;;;;;;;4351440;32;318300;-79
2024/04/02 00:59:22;;;;;;;28.20;5.32;;;;;;;;;;4340538;32;318359;-78
2024/04/02 01:01:50;;;;;;;28.20;5.50;;;;;;;;;;4351414;32;317748;-78
2024/04/02 01:04:16;;;;;;;45.47;7.62;;;;;;;;;;4341678;32;318122;-77
2024/04/02 01:06:45;;;;;;;44.63;6.18;;;;;;;;;;4341783;32;316704;-77
2024/04/02 01:09:10;;;;;;;38.78;6.45;;;;;;;;;;4342674;32;318312;-77
2024/04/02 01:11:38;;;;;;;41.58;5.65;;;;;;;;;;4352031;32;318330;-78
2024/04/02 01:14:05;;;;;;;33.95;5.80;;;;;;;;;;4350463;32;318052;-78
2024/04/02 01:16:33;;;;;;;29.90;7.07;;;;;;;;;;4332511;32;318004;-78
2024/04/02 01:19:01;;;;;;;36.00;6.18;;;;;;;;;;4350333;32;317648;-78
2024/04/02 01:21:28;;;;;;;32.65;7.15;;;;;;;;;;4340393;32;318308;-78
2024/04/02 01:23:55;;;;;;;35.75;5.72;;;;;;;;;;4340563;32;317849;-77
2024/04/02 01:26:25;;;;;;;26.98;5.05;;;;;;;;;;4335898;32;318037;-78
2024/04/02 01:28:53;;;;;;;27.52;6.85;;;;;;;;;;4349904;32;318258;-77
2024/04/02 01:31:20;;;;;;;34.88;5.65;;;;;;;;;;4340237;32;318319;-77
2024/04/02 01:33:47;;;;;;;29.90;6.57;;;;;;;;;;4349628;32;318130;-77
2024/04/02 01:36:13;;;;;;;32.75;6.25;;;;;;;;;;4335634;32;319006;-77
2024/04/02 01:38:40;;;;;;;24.98;6.12;;;;;;;;;;4328300;32;318199;-78
2024/04/02 01:41:07;;;;;;;34.00;6.97;;;;;;;;;;4333713;32;318273;-77
2024/04/02 01:43:34;;;;;;;32.75;5.45;;;;;;;;;;4324548;32;318390;-77
2024/04/02 01:46:02;;;;;;;44.05;7.53;;;;;;;;;;4334530;32;351727;-77
2024/04/02 01:48:29;;;;;;;26.42;6.07;;;;;;;;;;4323020;32;318067;-77
2024/04/02 01:50:56;;;;;;;31.42;6.32;;;;;;;;;;4350090;32;318091;-77
2024/04/02 01:53:22;;;;;;;28.98;5.80;;;;;;;;;;4339428;32;318467;-77
2024/04/02 01:55:51;;;;;;;23.10;5.87;;;;;;;;;;4348373;32;318310;-77
2024/04/02 01:58:16;;;;;;;41.70;6.28;;;;;;;;;;4338101;32;318300;-78
2024/04/02 02:00:46;;;;;;;41.95;6.72;;;;;;;;;;4342994;32;316379;-77
2024/04/02 02:03:12;;;;;;;34.72;6.47;;;;;;;;;;4323730;32;318292;-77
2024/04/02 02:05:39;;;;;;;23.17;5.93;;;;;;;;;;4341534;32;317671;-77
2024/04/02 02:08:06;;;;;;;39.10;6.40;;;;;;;;;;4349156;32;317597;-77
2024/04/02 02:10:35;;;;;;;29.83;6.82;;;;;;;;;;4332584;32;318271;-77
2024/04/02 02:13:04;;;;;;;26.48;5.25;;;;;;;;;;4349176;32;318153;-78
2024/04/02 02:15:31;;;;;;;29.30;6.60;;;;;;;;;;4339578;32;318133;-78
2024/04/02 02:18:00;;;;;;;31.35;6.00;;;;;;;;;;4348312;32;317684;-79
2024/04/02 02:20:27;;;;;;;31.12;7.20;;;;;;;;;;4333036;32;317605;-78
2024/04/02 02:22:54;;;;;;;23.42;5.70;;;;;;;;;;4348446;32;318292;-78
2024/04/02 02:25:22;;;;;;;38.55;7.47;;;;;;;;;;4337689;32;318066;-78
2024/04/02 02:27:49;;;;;;;38.63;6.65;;;;;;;;;;4348322;32;317998;-78
2024/04/02 02:30:16;;;;;;;31.02;5.82;;;;;;;;;;4327099;32;318892;-78
2024/04/02 02:32:42;;;;;;;38.63;6.95;;;;;;;;;;4325981;32;318248;-78
2024/04/02 02:35:10;;;;;;;51.97;6.68;;;;;;;;;;4345837;32;354077;-78
2024/04/02 02:37:37;;;;;;;34.53;6.40;;;;;;;;;;4335117;32;418892;-77
2024/04/02 02:40:07;;;;;;;35.58;6.45;;;;;;;;;;4349539;32;318096;-77
2024/04/02 02:42:34;;;;;;;26.60;6.70;;;;;;;;;;4330955;32;318290;-77
2024/04/02 02:45:02;;;;;;;33.63;7.43;;;;;;;;;;4350014;32;317954;-77
2024/04/02 02:47:28;;;;;;;32.88;6.10;;;;;;;;;;4338990;32;318284;-77
2024/04/02 02:49:55;;;;;;;24.87;5.43;;;;;;;;;;4347841;32;317852;-77
2024/04/02 02:52:25;;;;;;;31.02;5.60;;;;;;;;;;4335899;32;318227;-78
2024/04/02 02:54:53;;;;;;;31.65;7.45;;;;;;;;;;4347068;32;316505;-78
2024/04/02 02:57:19;;;;;;;34.40;6.70;;;;;;;;;;4337064;32;351912;-78
2024/04/02 02:59:47;;;;;;;38.65;6.45;;;;;;;;;;4347198;32;328297;-79
2024/04/02 03:02:13;;;;;;;38.30;7.05;;;;;;;;;;4339546;32;318194;-78
2024/04/02 03:04:41;;;;;;;26.23;6.50;;;;;;;;;;4342686;32;317662;-77
2024/04/02 03:07:06;;;;;;;30.80;7.20;;;;;;;;;;4346297;32;318053;-78
2024/04/02 03:09:36;;;;;;;32.53;6.62;;;;;;;;;;4323397;32;318468;-78
2024/04/02 03:12:03;;;;;;;35.72;7.53;;;;;;;;;;4332413;32;317759;-78
2024/04/02 03:14:31;;;;;;;37.72;7.03;;;;;;;;;;4316578;32;317990;-78
2024/04/02 03:16:58;;;;;;;41.83;8.23;;;;;;;;;;4333306;32;316403;-78
2024/04/02 03:19:25;;;;;;;39.78;6.87;;;;;;;;;;4323990;32;317702;-79
2024/04/02 03:21:51;;;;;;;31.15;5.78;;;;;;;;;;4333565;32;318162;-77
2024/04/02 03:24:17;;;;;;;34.42;6.45;;;;;;;;;;4323939;32;317573;-77
2024/04/02 03:26:47;;;;;;;30.58;6.32;;;;;;;;;;4325889;32;318413;-78
2024/04/02 03:29:15;;;;;;;31.92;6.40;;;;;;;;;;4325619;32;318072;-77
2024/04/02 03:31:42;;;;;;;28.80;6.07;;;;;;;;;;4347876;32;318226;-77
2024/04/02 03:34:09;;;;;;;27.15;6.30;;;;;;;;;;4340922;32;318210;-77
2024/04/02 03:36:35;;;;;;;38.97;7.53;;;;;;;;;;4334207;32;318234;-78
2024/04/02 03:39:02;;;;;;;43.03;5.95;;;;;;;;;;4331291;32;318233;-76
2024/04/02 03:41:31;;;;;;;37.67;7.32;;;;;;;;;;4322130;32;318093;-76
2024/04/02 03:43:59;;;;;;;33.17;6.55;;;;;;;;;;4346639;32;317603;-77
2024/04/02 03:46:25;;;;;;;28.23;6.82;;;;;;;;;;4331677;32;318391;-77
2024/04/02 03:48:53;;;;;;;31.77;7.07;;;;;;;;;;4347394;32;318068;-77
2024/04/02 03:51:19;;;;;;;35.22;7.25;;;;;;;;;;4338307;32;319185;-77
2024/04/02 03:53:47;;;;;;;31.12;6.62;;;;;;;;;;4346484;32;318114;-76
2024/04/02 03:56:12;;;;;;;37.15;7.57;;;;;;;;;;4337942;32;318118;-77
2024/04/02 03:58:39;;;;;;;45.08;9.02;;;;;;;;;;4341631;32;318073;-77
2024/04/02 04:01:08;;;;;;;45.10;7.43;;;;;;;;;;4348259;32;318238;-76
2024/04/02 04:03:36;;;;;;;51.05;9.75;;;;;;;;;;4334012;32;417668;-76
2024/04/02 04:06:03;;;;;;;47.75;8.05;;;;;;;;;;4346543;32;353915;-76
2024/04/02 04:08:32;;;;;;;41.63;8.50;;;;;;;;;;4331557;32;318339;-76
2024/04/02 04:10:59;;;;;;;43.15;7.65;;;;;;;;;;4346890;32;351801;-76
2024/04/02 04:13:28;;;;;;;44.83;7.37;;;;;;;;;;4329411;32;344632;-76
2024/04/02 04:15:54;;;;;;;42.10;6.97;;;;;;;;;;4346056;32;318157;-77
2024/04/02 04:18:29;;;;;;;34.80;6.40;;;;;;;;;;4334526;32;339682;-77
2024/04/02 04:20:56;;;;;;;39.97;6.32;;;;;;;;;;4346600;32;322921;-77
2024/04/02 04:23:25;;;;;;;32.25;8.05;;;;;;;;;;4338079;32;318345;-77
2024/04/02 04:25:56;;;;;;;62.30;8.95;;;;;;;;;;4347472;32;318572;-76
2024/04/02 04:28:26;;;;;;;44.33;8.00;;;;;;;;;;4331286;32;320062;-76
2024/04/02 04:30:53;;;;;;;43.35;8.25;;;;;;;;;;4345703;32;319078;-76
2024/04/02 04:33:22;;;;;;;27.87;6.65;;;;;;;;;;4337806;32;318204;-78
2024/04/02 04:35:51;;;;;;;37.28;7.43;;;;;;;;;;4346927;32;318288;-78
2024/04/02 04:38:28;;;;;;;38.38;7.22;;;;;;;;;;4337217;32;318147;-79
2024/04/02 04:40:54;;;;;;;50.12;10.32;;;;;;;;;;4347900;32;318437;-77
2024/04/02 04:43:22;;;;;;;54.50;9.73;;;;;;;;;;4337342;32;319277;-74
2024/04/02 04:45:52;;;;;;;47.65;10.13;;;;;;;;;;4347052;32;318179;-75
2024/04/02 04:48:20;;;;;;;42.40;11.20;;;;;;;;;;4338022;32;319895;-75
2024/04/02 04:50:59;;;;;;;57.90;11.12;;;;;;;;;;4346564;32;319658;-77
2024/04/02 04:53:28;;;;;;;47.20;9.68;;;;;;;;;;4340082;32;319489;-76
2024/04/02 04:55:58;;;;;;;33.25;9.65;;;;;;;;;;4348808;32;317900;-77
2024/04/02 04:58:27;;;;;;;46.42;10.25;;;;;;;;;;4331694;32;318369;-76
2024/04/02 05:00:54;;;;;;;54.42;7.30;;;;;;;;;;4335749;32;319546;-77
2024/04/02 05:03:22;;;;;;;61.00;8.60;;;;;;;;;;4318495;32;318821;-76
2024/04/02 05:05:48;;;;;;;40.58;10.00;;;;;;;;;;4335148;32;318265;-76
2024/04/02 05:08:27;;;;;;;56.10;10.80;;;;;;;;;;4324288;32;329163;-76
2024/04/02 05:10:54;;;;;;;40.28;9.40;;;;;;;;;;4340901;32;320103;-76
2024/04/02 05:13:24;;;;;;;78.47;11.70;;;;;;;;;;4340356;32;318366;-76
2024/04/02 05:15:50;;;;;;;50.35;11.15;;;;;;;;;;4348556;32;319471;-76
2024/04/02 05:18:20;;;;;;;47.65;10.93;;;;;;;;;;4331506;32;319299;-76
2024/04/02 05:20:47;;;;;;;51.72;10.63;;;;;;;;;;4331577;32;319214;-76
2024/04/02 05:23:13;;;;;;;55.65;11.55;;;;;;;;;;4339366;32;319380;-75
2024/04/02 05:25:42;;;;;;;35.55;7.47;;;;;;;;;;4348897;32;319457;-76
2024/04/02 05:28:09;;;;;;;59.58;9.52;;;;;;;;;;4349520;32;318494;-76
2024/04/02 05:30:36;;;;;;;38.90;8.38;;;;;;;;;;4329838;32;418954;-76
2024/04/02 05:33:06;;;;;;;41.90;8.52;;;;;;;;;;4348623;32;318680;-77
2024/04/02 05:35:31;;;;;;;52.15;9.02;;;;;;;;;;4338992;32;318102;-77
2024/04/02 05:38:01;;;;;;;35.45;8.52;;;;;;;;;;4349053;32;318319;-75
2024/04/02 05:40:28;;;;;;;27.75;7.45;;;;;;;;;;4333285;32;318521;-76
2024/04/02 05:42:58;;;;;;;41.05;9.85;;;;;;;;;;4350165;32;318409;-77
2024/04/02 05:45:24;;;;;;;45.30;9.00;;;;;;;;;;4338070;32;352241;-76
2024/04/02 05:47:54;;;;;;;47.65;10.00;;;;;;;;;;4348868;32;330845;-76
2024/04/02 05:50:20;;;;;;;35.92;8.63;;;;;;;;;;4330081;32;318796;-77
2024/04/02 05:52:57;;;;;;;41.55;8.60;;;;;;;;;;4339605;32;319393;-77
2024/04/02 05:55:24;;;;;;;45.60;9.02;;;;;;;;;;4324772;32;347691;-81
2024/04/02 05:57:51;;;;;;;47.60;10.00;;;;;;;;;;4346379;32;318228;-76
2024/04/02 06:00:28;;;;;;;50.63;10.70;;;;;;;;;;4337436;32;319683;-77
2024/04/02 06:02:55;;;;;;;43.90;9.80;;;;;;;;;;4346031;32;319450;-78
2024/04/02 06:05:20;;;;;;;43.95;9.45;;;;;;;;;;4335492;32;318523;-77
2024/04/02 06:07:49;;;;;;;48.25;9.70;;;;;;;;;;4346462;32;318392;-77
2024/04/02 06:10:15;;;;;;;27.57;9.53;;;;;;;;;;4336897;32;318575;-77
2024/04/02 06:12:45;;;;;;;50.35;10.15;;;;;;;;;;4335321;32;318358;-77
2024/04/02 06:15:10;;;;;;;44.05;8.55;;;;;;;;;;4334183;32;320366;-77
2024/04/02 06:17:39;;;;;;;40.67;9.35;;;;;;;;;;4346586;32;318286;-77
2024/04/02 06:20:05;;;;;;;35.17;7.57;;;;;;;;;;4346596;32;318452;-77
2024/04/02 06:22:33;;;;;;;38.67;8.90;;;;;;;;;;4329527;32;318260;-77
2024/04/02 06:25:01;;;;;;;44.00;8.02;;;;;;;;;;4346524;32;318529;-76
2024/04/02 06:27:27;;;;;;;46.53;9.17;;;;;;;;;;4334333;32;357315;-77
2024/04/02 06:29:54;;;;;;;41.88;10.10;;;;;;;;;;4344299;32;333018;-77
2024/04/02 06:32:20;;;;;;;53.33;10.52;;;;;;;;;;4336620;32;319474;-76
2024/04/02 06:34:49;;;;;;;64.72;9.82;;;;;;;;;;4345258;32;318695;-77
2024/04/02 06:37:15;;;;;;;50.90;11.23;;;;;;;;;;4338849;32;318598;-76
2024/04/02 06:39:42;;;;;;;39.38;9.13;;;;;;;;;;4349109;32;319365;-76
2024/04/02 06:42:08;;;;;;;67.68;10.23;;;;;;;;;;4349273;32;317711;-77
2024/04/02 06:44:36;;;;;;;41.63;8.45;;;;;;;;;;4330409;32;376379;-77
2024/04/02 06:47:02;;;;;;;47.22;7.60;;;;;;;;;;4349185;32;318398;-76
2024/04/02 06:49:28;;;;;;;45.88;10.18;;;;;;;;;;4338584;32;318292;-76
2024/04/02 06:51:55;;;;;;;38.25;8.35;;;;;;;;;;4348071;32;348386;-77
2024/04/02 06:54:23;;;;;;;36.45;8.65;;;;;;;;;;4334698;32;318286;-77
2024/04/02 06:56:50;;;;;;;39.60;8.27;;;;;;;;;;4348759;32;318425;-77
2024/04/02 06:59:17;;;;;;;37.22;7.20;;;;;;;;;;4339080;32;318543;-77
2024/04/02 07:01:44;;;;;;;57.72;16.98;;;;;;;;;;4347668;32;316451;-77
2024/04/02 07:04:10;;;;;;;52.60;17.12;;;;;;;;;;4337762;32;319773;-77
2024/04/02 07:06:38;;;;;;;50.45;13.93;;;;;;;;;;4341860;32;319350;-77
2024/04/02 07:09:08;;;;;;;37.78;8.57;;;;;;;;;;4348457;32;319137;-77
2024/04/02 07:11:34;;;;;;;38.75;7.25;;;;;;;;;;4336010;32;419076;-77
2024/04/02 07:14:02;;;;;;;41.58;7.53;;;;;;;;;;4348595;32;317646;-77
2024/04/02 07:16:28;;;;;;;33.60;7.37;;;;;;;;;;4324455;32;318863;-78
2024/04/02 07:18:55;;;;;;;44.92;8.27;;;;;;;;;;4334073;32;318052;-77
2024/04/02 07:21:22;;;;;;;33.10;8.43;;;;;;;;;;4321963;32;337577;-77
2024/04/02 07:23:49;;;;;;;39.40;7.25;;;;;;;;;;4332586;32;316675;-77
2024/04/02 07:26:16;;;;;;;50.30;7.70;;;;;;;;;;4310649;32;318535;-77
2024/04/02 07:28:43;;;;;;;32.03;6.43;;;;;;;;;;4326781;32;317743;-77
2024/04/02 07:31:09;;;;;;;34.97;6.35;;;;;;;;;;4323777;32;319091;-77
2024/04/02 07:33:38;;;;;;;38.72;6.32;;;;;;;;;;4333571;32;318454;-77
2024/04/02 07:36:06;;;;;;;31.00;6.40;;;;;;;;;;4332454;32;318218;-77
2024/04/02 07:38:34;;;;;;;43.78;7.70;;;;;;;;;;4317614;32;318738;-77
2024/04/02 07:41:00;;;;;;;38.80;7.32;;;;;;;;;;4333659;32;318720;-77
2024/04/02 07:43:28;;;;;;;39.28;7.15;;;;;;;;;;4323813;32;318237;-77
2024/04/02 07:45:54;;;;;;;40.75;7.20;;;;;;;;;;4333257;32;318625;-77
2024/04/02 07:48:26;;;;;;;32.55;5.68;;;;;;;;;;4323710;32;318237;-77
2024/04/02 07:50:54;;;;;;;39.33;7.37;;;;;;;;;;4332671;32;317776;-77
2024/04/02 07:53:23;;;;;;;26.42;4.95;;;;;;;;;;4322678;32;317689;-77
2024/04/02 07:55:49;;;;;;;27.10;5.35;;;;;;;;;;4333718;32;318604;-77
2024/04/02 07:58:16;;;;;;;39.20;8.10;;;;;;;;;;4323868;32;318535;-77
2024/04/02 08:00:44;;;;;;;32.03;5.65;;;;;;;;;;4326453;32;318778;-77
2024/04/02 08:03:11;;;;;;;33.47;7.95;;;;;;;;;;4323300;32;318494;-77
2024/04/02 08:05:36;;;;;;;31.20;5.80;;;;;;;;;;4332586;33;336383;-77
2024/04/02 08:08:07;;;;;;;26.65;5.82;;;;;;;;;;4333041;33;318388;-77
2024/04/02 08:10:34;;;;;;;22.62;5.18;;;;;;;;;;4316882;33;318483;-77
2024/04/02 08:13:01;;;;;;;31.95;5.37;;;;;;;;;;4332933;32;318026;-77
2024/04/02 08:15:27;;;;;;;33.75;5.72;;;;;;;;;;4323584;32;318495;-77
2024/04/02 08:17:56;;;;;;;28.08;5.97;;;;;;;;;;4333162;32;317695;-77
2024/04/02 08:20:22;;;;;;;32.92;6.10;;;;;;;;;;4317537;32;318585;-77
2024/04/02 08:22:54;;;;;;;17.80;5.50;;;;;;;;;;4331918;32;318489;-77
2024/04/02 08:25:21;;;;;;;39.70;6.60;;;;;;;;;;4311155;32;318357;-77
2024/04/02 08:27:48;;;;;;;20.25;4.80;;;;;;;;;;4344337;32;318396;-77
2024/04/02 08:30:14;;;;;;;35.17;6.53;;;;;;;;;;4324760;32;332126;-77
2024/04/02 08:32:41;;;;;;;20.95;5.18;;;;;;;;;;4334830;32;317488;-77
2024/04/02 08:35:10;;;;;;;27.15;4.60;;;;;;;;;;4324768;32;318214;-77
2024/04/02 08:37:37;;;;;;;24.75;5.10;;;;;;;;;;4336144;32;318271;-77
2024/04/02 08:40:05;;;;;;;20.02;3.92;;;;;;;;;;4326274;32;319001;-78
2024/04/02 08:42:34;;;;;;;19.90;4.40;;;;;;;;;;4335794;32;318382;-77
2024/04/02 08:45:01;;;;;;;15.65;3.72;;;;;;;;;;4324993;32;318355;-77
2024/04/02 08:47:28;;;;;;;16.37;3.78;;;;;;;;;;4329163;32;318326;-77
2024/04/02 08:49:56;;;;;;;24.67;4.60;;;;;;;;;;4335867;32;318288;-77
2024/04/02 08:52:24;;;;;;;15.50;3.30;;;;;;;;;;4326000;32;318362;-78
2024/04/02 08:54:51;;;;;;;14.30;3.65;;;;;;;;;;4336087;32;318330;-77
2024/04/02 08:57:19;;;;;;;31.02;3.85;;;;;;;;;;4319503;32;318209;-77
2024/04/02 08:59:48;;;;;;;16.60;2.70;;;;;;;;;;4333648;32;346260;-77
2024/04/02 09:02:16;;;;;;;23.35;3.87;;;;;;;;;;4324753;32;319065;-77
2024/04/02 09:04:42;;;;;;;14.27;2.33;;;;;;;;;;4335186;32;318248;-78
2024/04/02 09:07:11;;;;;;;12.18;2.10;;;;;;;;;;4323038;32;318380;-78
2024/04/02 09:09:38;;;;;;;9.18;2.00;;;;;;;;;;4334335;32;318386;-77
2024/04/02 09:12:05;;;;;;;13.60;2.95;;;;;;;;;;4311122;32;317491;-77
2024/04/02 09:14:33;;;;;;;16.70;1.98;;;;;;;;;;4334905;32;318243;-78
2024/04/02 09:17:00;;;;;;;15.45;1.85;;;;;;;;;;4324069;32;376120;-77
2024/04/02 09:19:27;;;;;;;12.43;2.60;;;;;;;;;;4329325;32;318430;-77
2024/04/02 09:21:54;;;;;;;13.27;2.72;;;;;;;;;;4335986;32;317854;-77
2024/04/02 09:24:20;;;;;;;7.05;1.73;;;;;;;;;;4326896;32;318420;-77
2024/04/02 09:26:49;;;;;;;9.05;2.12;;;;;;;;;;4335646;32;317371;-77
2024/04/02 09:29:15;;;;;;;8.60;1.62;;;;;;;;;;4319992;32;317212;-79
2024/04/02 09:31:43;;;;;;;13.07;1.67;;;;;;;;;;4322253;32;316757;-78
2024/04/02 09:34:09;;;;;;;12.37;1.62;;;;;;;;;;4326538;32;318167;-78
2024/04/02 09:37:14;;;;;;;25.77;3.15;;;;;;;;;;4335038;32;317977;-77
2024/04/02 09:39:44;;;;;;;7.53;1.40;;;;;;;;;;4302383;33;420038;-77
2024/04/02 09:42:13;;;;;;;6.57;1.60;;;;;;;;;;4311385;33;316393;-77
2024/04/02 09:44:40;;;;;;;10.32;1.50;;;;;;;;;;4322454;33;315872;-77
2024/04/02 09:47:07;;;;;;;9.85;2.10;;;;;;;;;;4312713;33;317648;-77
2024/04/02 09:49:35;;;;;;;5.62;1.83;;;;;;;;;;4318689;33;316064;-77
2024/04/02 09:52:04;;;;;;;5.97;1.62;;;;;;;;;;4310493;33;315871;-78
2024/04/02 09:54:30;;;;;;;7.45;1.65;;;;;;;;;;4319866;33;316755;-78
2024/04/02 09:56:59;;;;;;;8.27;1.75;;;;;;;;;;4324963;32;315759;-77
2024/04/02 09:59:27;;;;;;;9.13;1.55;;;;;;;;;;4328510;32;416869;-77
2024/04/02 10:01:56;;;;;;;17.15;1.77;;;;;;;;;;4349944;32;317296;-78
2024/04/02 10:04:22;;;;;;;12.90;3.12;;;;;;;;;;4338381;32;323981;-77
2024/04/02 10:06:53;;;;;;;9.93;1.33;;;;;;;;;;4349385;32;318739;-77
2024/04/02 10:09:21;;;;;;;5.43;1.08;;;;;;;;;;4333196;32;317946;-77
2024/04/02 10:11:48;;;;;;;6.93;1.42;;;;;;;;;;4347683;32;317353;-77
2024/04/02 10:14:15;;;;;;;13.43;1.60;;;;;;;;;;4338483;32;317334;-78
2024/04/02 10:16:45;;;;;;;5.55;1.20;;;;;;;;;;4339463;32;317837;-78
2024/04/02 10:19:12;;;;;;;7.87;1.15;;;;;;;;;;4331554;32;317841;-78
2024/04/02 10:21:40;;;;;;;10.52;1.10;;;;;;;;;;4349276;32;316793;-78
2024/04/02 10:24:08;;;;;;;7.80;1.80;;;;;;;;;;4339052;32;318370;-77
2024/04/02 10:26:38;;;;;;;6.45;1.85;;;;;;;;;;4350035;32;317622;-78
2024/04/02 10:29:04;;;;;;;5.53;1.40;;;;;;;;;;4338558;32;317273;-78
2024/04/02 10:31:39;;;;;;;5.55;1.08;;;;;;;;;;4333601;32;316697;-77
2024/04/02 10:34:10;;;;;;;4.45;1.27;;;;;;;;;;4337444;32;317118;-78
2024/04/02 10:36:37;;;;;;;8.95;0.95;;;;;;;;;;4333256;32;316720;-78
2024/04/02 10:39:10;;;;;;;6.60;1.08;;;;;;;;;;4338149;32;317158;-78
2024/04/02 10:41:39;;;;;;;10.27;1.92;;;;;;;;;;4333727;32;327313;-78
2024/04/02 10:44:05;;;;;;;6.82;1.42;;;;;;;;;;4323208;32;318234;-78
2024/04/02 10:46:31;;;;;;;10.20;2.00;;;;;;;;;;4332895;32;316993;-78
2024/04/02 10:48:59;;;;;;;2.62;1.62;;;;;;;;;;4334711;32;317480;-78
2024/04/02 10:51:28;;;;;;;8.48;1.50;;;;;;;;;;4329191;32;416374;-78
2024/04/02 10:53:54;;;;;;;3.42;1.10;;;;;;;;;;4348167;32;317272;-78
2024/04/02 10:56:24;;;;;;;6.97;1.40;;;;;;;;;;4339335;32;316872;-78
2024/04/02 10:58:50;;;;;;;2.75;1.17;;;;;;;;;;4347707;32;317145;-78
2024/04/02 11:01:19;;;;;;;3.80;0.90;;;;;;;;;;4332728;32;317539;-79
2024/04/02 11:03:47;;;;;;;10.77;1.95;;;;;;;;;;4348818;32;317041;-77
2024/04/02 11:06:14;;;;;;;4.95;1.42;;;;;;;;;;4336917;32;349938;-77
2024/04/02 11:08:43;;;;;;;3.58;1.10;;;;;;;;;;4348549;32;317791;-78
2024/04/02 11:11:20;;;;;;;4.78;1.20;;;;;;;;;;4332497;32;317195;-78
2024/04/02 11:13:45;;;;;;;3.30;1.05;;;;;;;;;;4345909;32;317136;-76
2024/04/02 11:16:15;;;;;;;3.95;1.30;;;;;;;;;;4336685;32;317476;-78
2024/04/02 11:18:41;;;;;;;7.82;1.48;;;;;;;;;;4348337;32;316592;-77
2024/04/02 11:21:15;;;;;;;4.15;0.80;;;;;;;;;;4337464;32;316932;-77
2024/04/02 11:26:27;;;;;;;6.50;1.30;;;;;;;;;;4336154;32;386870;-77
2024/04/02 11:29:03;;;;;;;3.60;1.50;;;;;;;;;;4347841;32;317375;-78
2024/04/02 11:31:29;;;;;;;7.82;1.37;;;;;;;;;;4329288;32;416320;-77
2024/04/02 11:33:58;;;;;;;8.23;1.35;;;;;;;;;;4347603;32;317066;-77
2024/04/02 11:36:25;;;;;;;3.55;1.05;;;;;;;;;;4335696;32;418026;-77
2024/04/02 11:38:52;;;;;;;4.35;0.95;;;;;;;;;;4348297;32;316681;-78
2024/04/02 11:41:19;;;;;;;3.30;1.77;;;;;;;;;;4330645;32;317203;-77
2024/04/02 11:43:48;;;;;;;5.50;1.45;;;;;;;;;;4345949;32;342179;-77
2024/04/02 11:46:13;;;;;;;12.77;1.10;;;;;;;;;;4337446;32;317261;-77
2024/04/02 11:48:41;;;;;;;4.47;1.35;;;;;;;;;;4346890;32;317627;-77
2024/04/02 11:51:09;;;;;;;6.20;0.93;;;;;;;;;;4336911;32;317132;-77
2024/04/02 11:53:35;;;;;;;3.55;1.15;;;;;;;;;;4347676;32;319653;-77
2024/04/02 11:56:01;;;;;;;9.45;1.62;;;;;;;;;;4338486;32;317150;-77
2024/04/02 12:01:15;;;;;;;4.65;1.00;;;;;;;;;;4330804;32;317127;-77
2024/04/02 12:03:42;;;;;;;11.95;1.62;;;;;;;;;;4339639;32;317152;-77
2024/04/02 12:06:10;;;;;;;8.18;1.08;;;;;;;;;;4338221;32;318650;-77
2024/04/02 12:08:37;;;;;;;6.28;1.23;;;;;;;;;;4347306;32;317075;-77
2024/04/02 12:11:04;;;;;;;3.12;1.08;;;;;;;;;;4335805;32;339505;-77
2024/04/02 12:13:31;;;;;;;4.93;1.52;;;;;;;;;;4340201;32;316916;-77
2024/04/02 12:15:58;;;;;;;6.22;1.20;;;;;;;;;;4348224;32;317125;-78
2024/04/02 12:18:25;;;;;;;4.53;1.10;;;;;;;;;;4335559;32;417856;-77
2024/04/02 12:20:53;;;;;;;10.10;1.65;;;;;;;;;;4348269;32;317082;-77
2024/04/02 12:23:19;;;;;;;6.07;1.10;;;;;;;;;;4331729;32;318324;-77
2024/04/02 12:25:45;;;;;;;5.28;1.23;;;;;;;;;;4347522;32;316403;-77
2024/04/02 12:28:11;;;;;;;9.85;1.73;;;;;;;;;;4337900;32;317226;-78
2024/04/02 12:30:38;;;;;;;9.13;1.17;;;;;;;;;;4347494;32;316580;-78
2024/04/02 12:33:04;;;;;;;3.12;0.93;;;;;;;;;;4336898;32;316934;-77
2024/04/02 12:35:34;;;;;;;5.07;0.98;;;;;;;;;;4340340;32;317179;-77
2024/04/02 12:38:00;;;;;;;4.80;0.93;;;;;;;;;;4336632;32;317016;-78
2024/04/02 12:40:26;;;;;;;2.87;1.17;;;;;;;;;;4346740;32;318090;-77
2024/04/02 12:42:52;;;;;;;2.25;0.82;;;;;;;;;;4347223;32;317263;-78
2024/04/02 12:45:19;;;;;;;7.03;1.35;;;;;;;;;;4329105;32;317263;-77
2024/04/02 12:47:45;;;;;;;4.90;1.52;;;;;;;;;;4333477;32;317656;-77
2024/04/02 12:50:14;;;;;;;8.98;1.30;;;;;;;;;;4323430;33;317127;-77
2024/04/02 12:52:41;;;;;;;7.78;1.50;;;;;;;;;;4331762;32;316683;-77
2024/04/02 12:55:13;;;;;;;10.98;1.27;;;;;;;;;;4320612;33;317353;-78
2024/04/02 12:57:39;;;;;;;6.53;1.10;;;;;;;;;;4332751;32;318232;-77
2024/04/02 13:00:07;;;;;;;4.50;1.37;;;;;;;;;;4322220;32;317511;-77
2024/04/02 13:02:32;;;;;;;4.40;0.98;;;;;;;;;;4331585;32;316666;-77
2024/04/02 13:05:02;;;;;;;5.35;1.05;;;;;;;;;;4332092;32;317364;-77
2024/04/02 13:07:29;;;;;;;4.72;1.02;;;;;;;;;;4326205;32;416455;-77
2024/04/02 13:09:59;;;;;;;4.10;0.90;;;;;;;;;;4346720;32;316835;-77
2024/04/02 13:12:25;;;;;;;3.40;1.08;;;;;;;;;;4338055;32;417834;-77
2024/04/02 13:14:53;;;;;;;9.10;1.17;;;;;;;;;;4349807;32;317368;-77
2024/04/02 13:17:19;;;;;;;5.30;0.73;;;;;;;;;;4332385;32;317238;-77
2024/04/02 13:19:45;;;;;;;3.30;0.82;;;;;;;;;;4347228;32;316807;-77
2024/04/02 13:22:12;;;;;;;5.05;0.70;;;;;;;;;;4339282;32;317116;-77
2024/04/02 13:24:39;;;;;;;4.15;0.82;;;;;;;;;;4348969;32;316712;-77
2024/04/02 13:27:06;;;;;;;2.90;1.25;;;;;;;;;;4337897;32;317345;-77
2024/04/02 13:29:33;;;;;;;3.47;1.02;;;;;;;;;;4342538;32;317346;-77
2024/04/02 13:31:58;;;;;;;5.15;0.80;;;;;;;;;;4339271;32;319757;-77
2024/04/02 13:34:25;;;;;;;3.28;0.65;;;;;;;;;;4348281;32;317480;-77
2024/04/02 13:36:51;;;;;;;2.85;1.00;;;;;;;;;;4347918;32;317334;-78
2024/04/02 13:39:18;;;;;;;4.05;0.90;;;;;;;;;;4331175;32;317258;-77
2024/04/02 13:41:43;;;;;;;6.78;1.00;;;;;;;;;;4348984;32;317581;-77
2024/04/02 13:44:11;;;;;;;2.85;0.75;;;;;;;;;;4338732;32;317271;-77
2024/04/02 13:46:37;;;;;;;3.72;1.15;;;;;;;;;;4348293;32;317428;-77
2024/04/02 13:49:04;;;;;;;6.45;0.73;;;;;;;;;;4339826;32;317199;-77
2024/04/02 13:51:30;;;;;;;4.35;0.62;;;;;;;;;;4341590;32;316720;-78
2024/04/02 13:53:57;;;;;;;4.75;1.27;;;;;;;;;;4350226;32;316413;-80
2024/04/02 13:56:24;;;;;;;4.18;1.40;;;;;;;;;;4342242;32;317384;-78
2024/04/02 13:58:51;;;;;;;4.18;1.17;;;;;;;;;;4347477;32;316994;-79
2024/04/02 14:01:18;;;;;;;14.10;1.25;;;;;;;;;;4332506;32;316872;-78
2024/04/02 14:03:45;;;;;;;7.15;0.90;;;;;;;;;;4339080;32;318020;-79
2024/04/02 14:06:10;;;;;;;6.20;1.40;;;;;;;;;;4329717;32;316928;-79
2024/04/02 14:08:39;;;;;;;7.95;1.52;;;;;;;;;;4338107;32;317401;-79
2024/04/02 14:11:06;;;;;;;6.53;1.23;;;;;;;;;;4325119;32;317197;-79
2024/04/02 14:13:32;;;;;;;9.77;1.30;;;;;;;;;;4331003;32;317307;-79
2024/04/02 14:15:59;;;;;;;9.27;1.23;;;;;;;;;;4323195;32;317424;-79
2024/04/02 14:18:27;;;;;;;2.60;1.08;;;;;;;;;;4332949;32;317122;-79
2024/04/02 14:20:55;;;;;;;5.28;1.10;;;;;;;;;;4348095;32;317269;-79
2024/04/02 14:23:22;;;;;;;1.85;0.70;;;;;;;;;;4335086;32;317230;-79
2024/04/02 14:25:54;;;;;;;2.45;1.05;;;;;;;;;;4352339;32;317283;-79
2024/04/02 14:28:22;;;;;;;4.10;1.25;;;;;;;;;;4340341;32;316924;-79